Time;durP1;ratioP1;P1;durP2;ratioP2;P2;SDS_P1;SDS_P2;PMS_P1;PMS_P2;Temp;Humidity;BMP_temperature;BMP_pressure;BME280_temperature;BME280_humidity;BME280_pressure;Samples;Min_cycle;Max_cycle;Signal;HPM_P1;HPM_P2
2022/08/21 00:01:54;;;;;;;7.33;4.37;;;20.90;72.60;;;;;;5086497;28;20481;-79
2022/08/21 00:04:23;;;;;;;7.47;5.37;;;20.80;72.50;;;;;;5068509;28;20458;-80
2022/08/21 00:06:57;;;;;;;7.60;4.83;;;20.80;72.40;;;;;;5089511;28;20464;-79
2022/08/21 00:09:25;;;;;;;6.20;4.20;;;20.80;72.40;;;;;;5085707;28;20468;-80
2022/08/21 00:11:53;;;;;;;8.33;4.30;;;20.70;72.30;;;;;;5086928;28;20800;-80
2022/08/21 00:14:20;;;;;;;8.53;4.10;;;20.70;72.30;;;;;;5084404;28;20469;-80
2022/08/21 00:16:50;;;;;;;7.03;3.30;;;20.70;72.20;;;;;;5085755;28;20494;-79
2022/08/21 00:19:19;;;;;;;7.63;4.00;;;20.60;72.20;;;;;;5086144;28;20453;-78
2022/08/21 00:21:48;;;;;;;9.13;4.53;;;20.60;72.10;;;;;;5083437;28;20488;-79
2022/08/21 00:24:16;;;;;;;6.30;3.83;;;20.60;72.10;;;;;;5085144;28;20466;-81
2022/08/21 00:26:44;;;;;;;7.30;4.47;;;20.60;72.10;;;;;;5087212;28;20494;-79
2022/08/21 00:29:13;;;;;;;7.50;4.20;;;20.50;72.10;;;;;;5069683;28;20509;-80
2022/08/21 00:31:41;;;;;;;6.40;4.20;;;20.50;72.00;;;;;;5080543;28;20491;-80
2022/08/21 00:34:12;;;;;;;6.10;4.10;;;20.50;71.90;;;;;;5083605;28;20459;-81
2022/08/21 00:36:40;;;;;;;6.10;3.83;;;20.50;71.90;;;;;;5084512;28;21003;-80
2022/08/21 00:39:09;;;;;;;9.30;4.63;;;20.50;71.80;;;;;;5082695;28;20466;-79
2022/08/21 00:41:39;;;;;;;7.07;4.70;;;20.40;71.70;;;;;;5083490;28;20480;-79
2022/08/21 00:44:10;;;;;;;8.23;4.40;;;20.40;71.70;;;;;;5064652;28;20826;-77
2022/08/21 00:46:38;;;;;;;6.87;4.60;;;20.40;71.70;;;;;;5084269;28;20486;-79
2022/08/21 00:49:08;;;;;;;7.40;4.87;;;20.30;71.70;;;;;;5089157;28;20992;-80
2022/08/21 00:51:43;;;;;;;9.40;4.43;;;20.30;71.50;;;;;;5078745;28;20468;-82
2022/08/21 00:54:12;;;;;;;6.90;4.60;;;20.30;71.50;;;;;;5084369;28;21222;-82
2022/08/21 00:56:47;;;;;;;7.00;4.77;;;20.30;71.40;;;;;;5085804;28;20482;-80
2022/08/21 00:59:16;;;;;;;8.23;4.80;;;20.20;71.30;;;;;;5084986;28;20459;-81
2022/08/21 01:01:45;;;;;;;7.03;4.43;;;20.20;71.30;;;;;;5086521;28;20481;-79
2022/08/21 01:04:13;;;;;;;7.80;4.53;;;20.20;71.20;;;;;;5069845;28;20819;-80
2022/08/21 01:06:43;;;;;;;7.80;4.77;;;20.20;71.20;;;;;;5067294;28;20694;-79
2022/08/21 01:09:11;;;;;;;6.63;4.13;;;20.20;71.20;;;;;;5085642;28;20467;-79
2022/08/21 01:11:39;;;;;;;8.53;5.20;;;20.10;71.10;;;;;;5077632;28;20451;-79
2022/08/21 01:14:07;;;;;;;9.40;6.00;;;20.10;71.00;;;;;;5084931;28;20453;-79
2022/08/21 01:16:35;;;;;;;8.57;5.30;;;20.00;71.00;;;;;;5087753;28;21064;-79
2022/08/21 01:19:03;;;;;;;7.53;4.57;;;20.00;71.00;;;;;;5084259;28;20481;-79
2022/08/21 01:21:33;;;;;;;8.93;5.10;;;19.90;71.10;;;;;;5083685;28;20820;-81
2022/08/21 01:24:01;;;;;;;7.33;4.80;;;19.90;71.10;;;;;;5086559;28;20454;-80
2022/08/21 01:26:31;;;;;;;7.50;5.17;;;19.90;71.10;;;;;;5089060;28;21011;-79
2022/08/21 01:29:07;;;;;;;8.97;5.40;;;19.80;71.10;;;;;;5068393;28;20447;-81
2022/08/21 01:31:36;;;;;;;8.67;5.30;;;19.80;71.10;;;;;;5085608;28;20477;-80
2022/08/21 01:34:05;;;;;;;8.10;4.97;;;19.80;71.00;;;;;;5070113;28;20452;-78
2022/08/21 01:36:35;;;;;;;7.57;5.10;;;19.70;71.00;;;;;;5084669;28;20474;-80
2022/08/21 01:39:05;;;;;;;8.20;5.43;;;19.70;71.00;;;;;;5096332;28;20833;-81
2022/08/21 01:41:33;;;;;;;7.03;4.77;;;19.70;71.00;;;;;;5085589;28;20577;-80
2022/08/21 01:44:01;;;;;;;10.23;6.43;;;19.70;70.90;;;;;;5084714;28;20474;-78
2022/08/21 01:46:29;;;;;;;9.10;5.90;;;19.70;70.90;;;;;;5063914;28;20498;-80
2022/08/21 01:48:56;;;;;;;9.03;6.23;;;19.70;70.90;;;;;;5082090;28;20461;-80
2022/08/21 01:51:24;;;;;;;9.40;6.47;;;19.60;70.70;;;;;;5080631;28;20476;-79
2022/08/21 01:53:54;;;;;;;10.90;6.17;;;19.50;70.70;;;;;;5082932;28;20458;-80
2022/08/21 01:56:22;;;;;;;13.07;6.43;;;19.50;70.70;;;;;;5085000;28;20493;-81
2022/08/21 01:58:50;;;;;;;8.50;5.73;;;19.40;70.70;;;;;;5082071;28;20493;-81
2022/08/21 02:01:18;;;;;;;7.73;5.50;;;19.40;70.50;;;;;;5064668;28;20471;-79
2022/08/21 02:03:46;;;;;;;9.20;5.23;;;19.30;70.50;;;;;;5085145;28;20493;-81
2022/08/21 02:06:17;;;;;;;8.03;6.13;;;19.30;70.50;;;;;;5083463;28;20481;-79
2022/08/21 02:08:46;;;;;;;9.80;6.03;;;19.30;70.50;;;;;;5080369;28;20589;-79
2022/08/21 02:11:15;;;;;;;8.23;5.60;;;19.30;70.50;;;;;;5086211;28;20459;-80
2022/08/21 02:13:43;;;;;;;8.67;5.57;;;19.30;70.60;;;;;;5078897;28;20914;-81
2022/08/21 02:16:12;;;;;;;8.83;5.67;;;19.30;70.60;;;;;;5065077;28;20470;-82
2022/08/21 02:18:46;;;;;;;8.97;5.73;;;19.30;70.50;;;;;;5059725;28;20504;-82
2022/08/21 02:21:15;;;;;;;12.73;5.97;;;19.20;70.40;;;;;;5066748;28;20554;-80
2022/08/21 02:23:43;;;;;;;8.47;5.50;;;19.20;70.40;;;;;;5077242;28;20563;-81
2022/08/21 02:26:11;;;;;;;9.97;6.33;;;19.20;70.30;;;;;;5063776;28;20477;-81
2022/08/21 02:28:41;;;;;;;8.30;6.07;;;19.10;70.30;;;;;;5083752;28;20458;-80
2022/08/21 02:31:09;;;;;;;9.90;6.20;;;19.10;70.20;;;;;;5081606;28;20461;-82
2022/08/21 02:33:37;;;;;;;8.40;6.23;;;19.10;70.20;;;;;;5081473;28;20533;-81
2022/08/21 02:36:06;;;;;;;9.50;6.80;;;19.00;70.20;;;;;;5067122;28;20496;-81
2022/08/21 02:38:38;;;;;;;8.20;5.70;;;19.00;70.10;;;;;;5061924;28;20454;-80
2022/08/21 02:41:07;;;;;;;9.73;6.83;;;19.00;70.10;;;;;;5069969;28;20469;-81
2022/08/21 02:43:35;;;;;;;11.40;7.60;;;19.00;70.00;;;;;;5078327;28;20470;-80
2022/08/21 02:46:06;;;;;;;9.73;6.50;;;19.00;70.00;;;;;;5080056;28;20488;-80
2022/08/21 02:48:36;;;;;;;8.50;5.90;;;18.90;70.00;;;;;;5079768;28;20447;-82
2022/08/21 02:51:07;;;;;;;9.17;6.13;;;18.90;69.90;;;;;;5082708;28;20954;-79
2022/08/21 02:53:36;;;;;;;9.33;6.57;;;18.90;69.90;;;;;;5074410;28;20445;-81
2022/08/21 02:56:07;;;;;;;10.10;6.63;;;18.90;69.90;;;;;;5082961;28;20477;-80
2022/08/21 02:58:40;;;;;;;11.30;7.03;;;18.90;69.80;;;;;;5075301;28;20450;-80
2022/08/21 03:01:09;;;;;;;9.77;6.80;;;18.80;69.80;;;;;;5077109;28;20967;-79
2022/08/21 03:03:39;;;;;;;11.30;7.13;;;18.80;69.80;;;;;;5083855;28;20481;-80
2022/08/21 03:06:08;;;;;;;10.07;6.77;;;18.70;69.60;;;;;;5080790;28;20485;-80
2022/08/21 03:08:37;;;;;;;9.43;7.00;;;18.60;69.60;;;;;;5081770;28;20444;-78
2022/08/21 03:11:06;;;;;;;10.30;6.73;;;18.60;69.60;;;;;;5079895;28;20864;-80
2022/08/21 03:13:37;;;;;;;11.07;6.80;;;18.50;69.50;;;;;;5079838;28;20451;-80
2022/08/21 03:16:06;;;;;;;10.30;6.57;;;18.50;69.60;;;;;;5078035;28;21205;-80
2022/08/21 03:18:39;;;;;;;9.70;7.10;;;18.40;69.60;;;;;;5085247;28;20468;-78
2022/08/21 03:21:07;;;;;;;8.67;6.60;;;18.40;69.70;;;;;;5083135;28;20469;-79
2022/08/21 03:23:35;;;;;;;11.47;7.63;;;18.40;69.80;;;;;;5059240;28;20465;-80
2022/08/21 03:26:03;;;;;;;10.97;7.27;;;18.30;69.70;;;;;;5082768;28;20469;-81
2022/08/21 03:28:32;;;;;;;11.30;7.40;;;18.30;69.80;;;;;;5082655;28;20452;-80
2022/08/21 03:31:00;;;;;;;13.83;7.30;;;18.30;69.90;;;;;;5077266;28;20466;-80
2022/08/21 03:33:28;;;;;;;10.60;6.90;;;18.30;70.00;;;;;;5082755;28;20953;-78
2022/08/21 03:36:03;;;;;;;11.20;7.73;;;18.30;69.90;;;;;;5080493;28;20485;-80
2022/08/21 03:38:32;;;;;;;10.77;7.43;;;18.30;69.90;;;;;;5081186;28;20864;-79
2022/08/21 03:41:01;;;;;;;10.33;7.60;;;18.30;69.80;;;;;;5079623;28;20453;-78
2022/08/21 03:43:29;;;;;;;12.13;8.47;;;18.20;69.70;;;;;;5080352;28;20469;-80
2022/08/21 03:45:59;;;;;;;10.27;7.67;;;18.10;69.40;;;;;;5083792;28;20477;-81
2022/08/21 03:48:27;;;;;;;10.10;7.30;;;18.00;69.50;;;;;;5078484;28;20547;-81
2022/08/21 03:50:56;;;;;;;11.83;7.93;;;17.90;69.70;;;;;;5076346;28;20454;-80
2022/08/21 03:53:26;;;;;;;12.37;7.37;;;17.80;69.90;;;;;;5081227;28;20449;-79
2022/08/21 03:55:54;;;;;;;11.87;8.10;;;17.80;70.10;;;;;;5080165;28;20482;-80
2022/08/21 03:58:24;;;;;;;11.20;8.20;;;17.80;70.30;;;;;;5081327;28;20953;-80
2022/08/21 04:01:00;;;;;;;10.90;7.83;;;17.90;70.30;;;;;;5061734;28;20511;-80
2022/08/21 04:03:28;;;;;;;13.53;7.07;;;17.80;70.20;;;;;;5079379;28;20480;-80
2022/08/21 04:05:56;;;;;;;10.40;7.10;;;17.90;70.30;;;;;;5080743;28;20484;-78
2022/08/21 04:08:26;;;;;;;13.33;8.37;;;17.90;70.30;;;;;;5078972;28;20450;-80
2022/08/21 04:10:57;;;;;;;9.80;6.50;;;17.90;70.30;;;;;;5075753;28;20473;-79
2022/08/21 04:13:27;;;;;;;10.57;6.80;;;17.90;70.30;;;;;;5081291;28;20463;-80
2022/08/21 04:15:57;;;;;;;10.53;7.33;;;17.90;70.20;;;;;;5084981;28;20547;-80
2022/08/21 04:18:25;;;;;;;9.23;7.07;;;17.90;70.10;;;;;;5086059;28;20453;-80
2022/08/21 04:20:55;;;;;;;11.87;7.63;;;17.90;70.00;;;;;;5085587;28;20465;-79
2022/08/21 04:23:23;;;;;;;10.40;7.47;;;17.80;69.80;;;;;;5083520;28;20465;-79
2022/08/21 04:25:55;;;;;;;10.53;7.60;;;17.80;69.90;;;;;;5082304;28;21300;-80
2022/08/21 04:28:24;;;;;;;10.77;7.23;;;17.80;69.80;;;;;;5082628;28;20461;-82
2022/08/21 04:30:56;;;;;;;10.87;7.37;;;17.70;69.80;;;;;;5084825;28;20481;-81
2022/08/21 04:33:25;;;;;;;10.10;6.47;;;17.70;69.80;;;;;;5086625;28;20469;-81
2022/08/21 04:35:53;;;;;;;10.77;7.80;;;17.70;69.90;;;;;;5086375;28;20493;-80
2022/08/21 04:38:21;;;;;;;10.90;7.53;;;17.70;70.00;;;;;;5087935;28;20608;-79
2022/08/21 04:40:50;;;;;;;10.23;7.57;;;17.70;70.10;;;;;;5085320;28;20454;-80
2022/08/21 04:43:21;;;;;;;11.70;7.70;;;17.80;70.00;;;;;;5096381;28;20469;-81
2022/08/21 04:45:51;;;;;;;11.17;7.03;;;17.80;70.00;;;;;;5078639;28;20462;-81
2022/08/21 04:48:23;;;;;;;11.20;7.40;;;17.80;69.80;;;;;;5085778;28;20464;-80
2022/08/21 04:50:57;;;;;;;10.90;7.10;;;17.70;69.80;;;;;;5084326;28;20585;-80
2022/08/21 04:53:31;;;;;;;11.50;7.10;;;17.70;69.80;;;;;;5079289;28;20472;-80
2022/08/21 04:56:04;;;;;;;12.80;8.30;;;17.70;69.70;;;;;;5084755;28;20480;-80
2022/08/21 04:58:35;;;;;;;13.40;8.13;;;17.70;69.90;;;;;;5084110;28;20465;-81
2022/08/21 05:01:06;;;;;;;10.23;8.00;;;17.70;70.10;;;;;;5078870;28;21048;-82
2022/08/21 05:03:36;;;;;;;11.00;7.40;;;17.80;70.50;;;;;;5079878;28;20821;-80
2022/08/21 05:06:07;;;;;;;12.70;7.57;;;18.30;70.90;;;;;;5063430;28;20584;-80
2022/08/21 05:08:35;;;;;;;10.57;7.50;;;18.90;70.30;;;;;;5078517;28;20540;-80
2022/08/21 05:11:05;;;;;;;11.90;7.10;;;19.70;69.30;;;;;;5082867;28;20469;-80
2022/08/21 05:13:34;;;;;;;11.80;7.50;;;20.40;68.30;;;;;;5068153;28;20460;-78
2022/08/21 05:16:03;;;;;;;10.50;6.77;;;21.20;67.40;;;;;;5083044;28;20487;-80
2022/08/21 05:18:31;;;;;;;9.57;6.60;;;21.90;66.40;;;;;;5083758;28;20457;-79
2022/08/21 05:20:59;;;;;;;8.83;6.03;;;22.50;65.50;;;;;;5069757;28;20460;-82
2022/08/21 05:23:27;;;;;;;9.77;6.80;;;23.20;64.70;;;;;;5087486;28;20460;-80
2022/08/21 05:25:55;;;;;;;10.17;7.80;;;23.90;63.80;;;;;;5066727;28;21021;-81
2022/08/21 05:28:24;;;;;;;8.90;6.33;;;24.50;62.90;;;;;;5085729;28;20532;-81
2022/08/21 05:30:55;;;;;;;9.50;6.10;;;25.10;62.00;;;;;;5083243;28;20478;-82
2022/08/21 05:33:23;;;;;;;10.33;6.70;;;25.70;61.20;;;;;;5081042;28;21143;-79
2022/08/21 05:35:52;;;;;;;10.20;6.13;;;26.30;60.40;;;;;;5086318;28;20562;-79
2022/08/21 05:38:20;;;;;;;9.00;6.33;;;27.00;59.60;;;;;;5086559;28;20461;-79
2022/08/21 05:40:48;;;;;;;8.87;6.53;;;27.60;58.60;;;;;;5081728;28;20458;-79
2022/08/21 05:43:16;;;;;;;10.40;7.10;;;28.30;57.50;;;;;;5080724;28;20897;-79
2022/08/21 05:45:44;;;;;;;10.23;6.67;;;29.00;56.30;;;;;;5079307;28;20473;-78
2022/08/21 05:48:16;;;;;;;8.30;6.10;;;29.60;55.10;;;;;;5080141;28;20460;-80
2022/08/21 05:50:45;;;;;;;8.53;6.03;;;30.10;54.00;;;;;;5076803;28;20457;-80
2022/08/21 05:53:14;;;;;;;8.83;6.37;;;30.50;52.80;;;;;;5075700;28;20480;-81
2022/08/21 05:55:43;;;;;;;9.40;6.80;;;30.30;51.20;;;;;;5077547;28;20992;-79
2022/08/21 05:58:14;;;;;;;10.70;7.17;;;29.10;50.90;;;;;;5083722;28;20606;-79
2022/08/21 06:00:42;;;;;;;9.53;7.57;;;27.60;51.50;;;;;;5078543;28;20498;-79
2022/08/21 06:03:17;;;;;;;14.30;7.23;;;26.10;52.70;;;;;;5080442;28;20468;-80
2022/08/21 06:05:46;;;;;;;10.00;7.77;;;24.90;54.00;;;;;;5082903;28;20484;-78
2022/08/21 06:08:14;;;;;;;15.10;7.67;;;23.90;55.40;;;;;;5081462;28;20481;-80
2022/08/21 06:10:42;;;;;;;11.03;8.03;;;23.20;56.60;;;;;;5075108;28;20460;-79
2022/08/21 06:13:10;;;;;;;10.13;7.30;;;22.60;57.60;;;;;;5080432;28;20455;-78
2022/08/21 06:15:38;;;;;;;12.60;8.83;;;22.10;58.60;;;;;;5071997;28;20496;-81
2022/08/21 06:18:07;;;;;;;18.97;9.60;;;21.80;59.50;;;;;;5087020;28;20840;-80
2022/08/21 06:20:37;;;;;;;11.87;8.10;;;21.50;60.30;;;;;;5083947;28;20468;-81
2022/08/21 06:23:05;;;;;;;11.87;8.73;;;21.30;61.00;;;;;;5087346;28;20851;-81
2022/08/21 06:25:33;;;;;;;14.00;8.47;;;21.10;61.50;;;;;;5085769;28;20519;-79
2022/08/21 06:28:02;;;;;;;11.50;8.80;;;20.90;62.10;;;;;;5086036;28;20495;-81
2022/08/21 06:30:32;;;;;;;12.97;9.00;;;20.80;62.70;;;;;;5082094;28;20489;-80
2022/08/21 06:33:00;;;;;;;12.87;9.07;;;20.80;63.30;;;;;;5081073;28;20458;-80
2022/08/21 06:35:29;;;;;;;14.87;10.10;;;20.70;63.80;;;;;;5082911;28;20484;-81
2022/08/21 06:37:59;;;;;;;14.27;9.17;;;20.60;64.20;;;;;;5084866;28;20468;-81
2022/08/21 06:40:28;;;;;;;13.67;9.93;;;20.60;64.70;;;;;;5082636;28;21013;-80
2022/08/21 06:42:58;;;;;;;14.60;9.67;;;20.60;65.10;;;;;;5078423;28;20449;-81
2022/08/21 06:45:28;;;;;;;13.30;8.50;;;20.60;65.40;;;;;;5083121;28;20556;-81
2022/08/21 06:47:59;;;;;;;13.67;8.73;;;20.60;65.70;;;;;;5084477;28;20461;-81
2022/08/21 06:50:28;;;;;;;13.23;8.70;;;20.60;66.00;;;;;;5076304;28;20473;-78
2022/08/21 06:53:06;;;;;;;16.30;10.30;;;20.60;66.30;;;;;;5079016;28;20491;-79
2022/08/21 06:55:35;;;;;;;11.30;8.53;;;20.60;66.60;;;;;;5082256;28;20484;-81
2022/08/21 06:58:03;;;;;;;11.90;8.40;;;20.60;66.70;;;;;;5066064;28;20464;-80
2022/08/21 07:00:32;;;;;;;12.40;9.30;;;20.60;67.00;;;;;;5078469;28;20466;-79
2022/08/21 07:03:00;;;;;;;14.70;8.80;;;20.60;67.20;;;;;;5078020;28;20461;-80
2022/08/21 07:05:29;;;;;;;14.10;9.40;;;20.70;67.40;;;;;;5063041;28;20489;-80
2022/08/21 07:07:57;;;;;;;12.83;8.70;;;20.70;67.60;;;;;;5080794;28;20468;-79
2022/08/21 07:10:28;;;;;;;12.37;8.47;;;20.70;67.80;;;;;;5081784;28;20464;-81
2022/08/21 07:12:56;;;;;;;13.50;8.80;;;20.70;68.10;;;;;;5080350;28;21012;-82
2022/08/21 07:15:29;;;;;;;13.00;8.23;;;20.70;68.10;;;;;;5077760;28;21019;-81
2022/08/21 07:17:58;;;;;;;12.60;8.40;;;20.80;68.30;;;;;;5062846;28;20473;-81
2022/08/21 07:20:27;;;;;;;15.23;8.93;;;20.80;68.50;;;;;;5081872;28;20461;-82
2022/08/21 07:22:56;;;;;;;11.97;8.33;;;20.80;68.60;;;;;;5082043;28;20462;-79
2022/08/21 07:25:24;;;;;;;14.30;9.07;;;20.80;68.80;;;;;;5082658;28;20525;-80
2022/08/21 07:27:53;;;;;;;11.97;7.90;;;20.90;68.90;;;;;;5079159;28;20581;-82
2022/08/21 07:30:22;;;;;;;15.43;8.40;;;20.90;69.00;;;;;;5076673;28;20457;-79
2022/08/21 07:32:54;;;;;;;14.90;8.10;;;20.90;69.10;;;;;;5081184;28;20462;-81
2022/08/21 07:35:23;;;;;;;11.63;7.70;;;21.00;69.20;;;;;;5063714;28;20476;-81
2022/08/21 07:37:51;;;;;;;15.43;8.03;;;21.00;69.30;;;;;;5079534;28;20468;-80
2022/08/21 07:40:20;;;;;;;13.00;9.20;;;21.10;69.30;;;;;;5058518;28;20873;-81
2022/08/21 07:42:51;;;;;;;12.83;8.33;;;21.20;69.40;;;;;;5071884;28;20971;-79
2022/08/21 07:45:24;;;;;;;9.87;7.30;;;21.20;69.50;;;;;;5052659;28;20565;-78
2022/08/21 07:47:52;;;;;;;14.23;7.50;;;21.20;69.60;;;;;;5074399;28;21055;-78
2022/08/21 07:50:24;;;;;;;12.67;8.43;;;21.30;69.60;;;;;;5077673;28;22026;-79
2022/08/21 07:52:53;;;;;;;9.90;6.80;;;21.40;69.70;;;;;;5077684;28;20459;-80
2022/08/21 07:55:22;;;;;;;12.33;7.40;;;21.50;69.70;;;;;;5076976;28;20493;-79
2022/08/21 07:57:50;;;;;;;11.70;7.60;;;21.50;69.80;;;;;;5081866;28;20757;-77
2022/08/21 08:00:23;;;;;;;15.60;8.00;;;21.60;69.80;;;;;;5083387;28;20954;-79
2022/08/21 08:02:53;;;;;;;11.60;7.47;;;21.70;69.70;;;;;;5078595;28;20454;-79
2022/08/21 08:05:24;;;;;;;19.73;8.87;;;21.70;69.70;;;;;;5076089;28;20530;-80
2022/08/21 08:07:52;;;;;;;10.43;6.90;;;21.70;69.80;;;;;;5082551;28;20459;-81
2022/08/21 08:10:21;;;;;;;13.07;8.17;;;21.80;69.80;;;;;;5064537;28;20455;-80
2022/08/21 08:12:51;;;;;;;11.20;7.90;;;21.80;69.90;;;;;;5081101;28;20465;-78
2022/08/21 08:15:23;;;;;;;12.23;8.00;;;21.90;69.90;;;;;;5080456;28;20558;-80
2022/08/21 08:17:51;;;;;;;11.30;6.70;;;21.90;69.90;;;;;;5084278;28;20464;-81
2022/08/21 08:20:19;;;;;;;10.90;8.20;;;22.00;69.90;;;;;;5084282;28;20497;-81
2022/08/21 08:22:48;;;;;;;10.60;7.47;;;22.00;70.00;;;;;;5082735;28;20472;-81
2022/08/21 08:25:18;;;;;;;11.20;6.63;;;22.10;70.00;;;;;;5072173;28;20493;-81
2022/08/21 08:27:47;;;;;;;10.20;6.90;;;22.10;70.10;;;;;;5082217;28;20474;-80
2022/08/21 08:30:17;;;;;;;11.57;7.50;;;22.10;70.20;;;;;;5084696;28;20452;-79
2022/08/21 08:32:48;;;;;;;10.77;7.10;;;22.20;70.20;;;;;;5065569;28;20461;-79
2022/08/21 08:35:16;;;;;;;10.10;7.30;;;22.20;70.20;;;;;;5082593;28;20535;-80
2022/08/21 08:37:45;;;;;;;8.97;5.67;;;22.20;70.20;;;;;;5081703;28;20456;-81
2022/08/21 08:40:25;;;;;;;12.17;6.57;;;22.30;70.30;;;;;;5080229;28;20991;-80
2022/08/21 08:42:53;;;;;;;10.13;6.57;;;22.30;70.40;;;;;;5084590;28;20447;-81
2022/08/21 08:45:24;;;;;;;8.97;6.30;;;22.30;70.30;;;;;;5062465;28;20516;-81
2022/08/21 08:47:57;;;;;;;9.73;6.87;;;22.30;70.30;;;;;;5092573;28;20485;-79
2022/08/21 08:50:34;;;;;;;8.33;5.60;;;22.40;70.30;;;;;;5076015;28;20973;-78
2022/08/21 08:53:05;;;;;;;8.10;5.83;;;22.40;70.30;;;;;;5072889;28;20445;-80
2022/08/21 08:55:37;;;;;;;9.20;6.27;;;22.50;70.30;;;;;;5073348;28;20480;-80
2022/08/21 08:58:06;;;;;;;8.40;5.40;;;22.50;70.40;;;;;;5077073;28;20461;-81
2022/08/21 09:00:34;;;;;;;9.73;5.37;;;22.60;70.40;;;;;;5074019;28;20470;-79
2022/08/21 09:03:04;;;;;;;9.33;4.83;;;22.60;70.50;;;;;;5080666;28;20974;-78
2022/08/21 09:05:43;;;;;;;8.47;4.90;;;22.70;70.60;;;;;;5078085;28;20485;-79
2022/08/21 09:08:41;;;;;;;8.93;4.70;;;22.80;70.50;;;;;;5087409;28;20856;-79
2022/08/21 09:11:16;;;;;;;9.67;4.93;;;22.90;70.50;;;;;;5082807;28;20481;-78
2022/08/21 09:13:55;;;;;;;8.57;5.00;;;22.90;70.00;;;;;;5065953;28;20479;-80
2022/08/21 09:16:40;;;;;;;11.27;5.60;;;22.90;69.70;;;;;;5082186;28;20482;-78
2022/08/21 09:19:37;;;;;;;11.20;4.43;;;22.90;69.40;;;;;;5079869;28;21165;-79
2022/08/21 09:22:14;;;;;;;7.33;4.17;;;22.90;69.20;;;;;;5092169;27;20460;-82
2022/08/21 09:24:54;;;;;;;9.83;4.70;;;22.90;68.60;;;;;;5077175;28;20460;-83
2022/08/21 09:27:22;;;;;;;8.07;4.13;;;22.90;68.30;;;;;;5078075;28;20485;-82
2022/08/21 09:29:54;;;;;;;7.37;4.50;;;23.00;68.10;;;;;;5075877;28;20454;-80
2022/08/21 09:32:25;;;;;;;7.37;3.80;;;23.00;67.80;;;;;;5076705;28;20557;-81
2022/08/21 09:35:09;;;;;;;9.10;4.33;;;23.20;67.50;;;;;;5077814;28;20477;-80
2022/08/21 09:37:49;;;;;;;7.07;4.53;;;23.30;67.20;;;;;;5062530;28;20978;-79
2022/08/21 09:40:24;;;;;;;8.20;4.33;;;23.30;67.00;;;;;;5075177;28;20493;-78
2022/08/21 09:42:59;;;;;;;7.47;4.17;;;23.40;67.00;;;;;;5090374;27;20466;-79
2022/08/21 09:45:28;;;;;;;9.67;4.67;;;23.40;66.70;;;;;;5071707;28;20560;-81
2022/08/21 09:48:12;;;;;;;8.30;4.37;;;23.50;66.60;;;;;;5073674;28;20544;-82
2022/08/21 09:50:43;;;;;;;9.90;4.30;;;23.60;66.20;;;;;;5060384;28;20445;-79
2022/08/21 09:53:20;;;;;;;12.40;4.30;;;23.50;65.20;;;;;;5075584;28;20460;-80
2022/08/21 09:58:42;;;;;;;7.53;4.40;;;23.60;65.30;;;;;;5077214;28;20468;-80
2022/08/21 10:01:17;;;;;;;8.10;4.13;;;23.60;65.00;;;;;;5077550;28;20494;-79
2022/08/21 10:03:45;;;;;;;10.17;3.87;;;23.60;64.90;;;;;;5076701;28;20880;-79
2022/08/21 10:06:25;;;;;;;8.60;4.23;;;23.60;64.80;;;;;;5075992;28;20483;-79
2022/08/21 10:09:06;;;;;;;7.63;4.30;;;23.60;64.60;;;;;;5075364;28;20455;-80
2022/08/21 10:11:35;;;;;;;6.37;3.70;;;23.70;64.50;;;;;;5075125;28;20471;-79
2022/08/21 10:14:13;;;;;;;10.33;4.53;;;23.70;64.30;;;;;;5076222;28;20479;-79
2022/08/21 10:16:54;;;;;;;8.30;3.90;;;23.80;64.10;;;;;;5069823;28;20492;-80
2022/08/21 10:19:30;;;;;;;7.27;3.77;;;23.90;64.00;;;;;;5075147;28;20463;-81
2022/08/21 10:22:09;;;;;;;8.87;4.07;;;23.90;63.70;;;;;;5062412;28;20462;-80
2022/08/21 10:24:44;;;;;;;9.03;4.30;;;23.90;63.40;;;;;;5077467;28;20466;-79
2022/08/21 10:27:23;;;;;;;8.33;4.10;;;24.00;63.10;;;;;;5072061;28;20536;-80
2022/08/21 10:29:57;;;;;;;9.50;4.37;;;24.00;62.90;;;;;;5061127;28;20463;-78
2022/08/21 10:32:38;;;;;;;8.77;4.57;;;24.00;62.80;;;;;;5079768;28;20498;-81
2022/08/21 10:35:13;;;;;;;7.37;4.30;;;24.00;62.70;;;;;;5081711;28;20486;-80
2022/08/21 10:38:00;;;;;;;9.33;4.80;;;24.10;62.70;;;;;;5080105;28;21172;-81
2022/08/21 10:40:32;;;;;;;7.00;4.50;;;24.20;62.70;;;;;;5080574;28;20455;-79
2022/08/21 10:43:17;;;;;;;7.30;4.47;;;24.20;62.50;;;;;;5075296;28;20468;-82
2022/08/21 10:45:57;;;;;;;8.30;4.50;;;24.30;62.40;;;;;;5071687;28;20486;-79
2022/08/21 10:48:29;;;;;;;10.30;4.57;;;24.30;62.40;;;;;;5075600;28;20497;-79
2022/08/21 10:51:07;;;;;;;7.00;4.40;;;24.40;62.40;;;;;;5077946;28;20475;-82
2022/08/21 10:53:51;;;;;;;7.73;4.20;;;24.50;62.10;;;;;;5082777;28;20450;-80
2022/08/21 10:56:24;;;;;;;8.87;4.50;;;24.60;61.80;;;;;;5080540;28;20474;-78
2022/08/21 10:59:11;;;;;;;8.30;4.70;;;24.70;61.90;;;;;;5077592;28;20945;-80
2022/08/21 11:01:48;;;;;;;14.40;4.93;;;24.70;61.70;;;;;;5079932;28;21046;-79
2022/08/21 11:04:21;;;;;;;8.07;4.13;;;24.70;61.70;;;;;;5061778;28;20995;-80
2022/08/21 11:06:54;;;;;;;11.37;5.30;;;24.70;61.70;;;;;;5078753;28;20482;-80
2022/08/21 11:09:27;;;;;;;9.50;5.10;;;24.70;61.50;;;;;;5085655;28;20554;-79
2022/08/21 11:12:01;;;;;;;8.73;4.93;;;24.60;61.40;;;;;;5078158;28;20561;-81
2022/08/21 11:14:48;;;;;;;9.43;4.50;;;24.60;61.40;;;;;;5073212;28;20496;-79
2022/08/21 11:17:23;;;;;;;8.13;4.50;;;24.50;61.20;;;;;;5075879;28;20543;-79
2022/08/21 11:19:55;;;;;;;6.80;3.93;;;24.50;61.10;;;;;;5077603;28;20522;-81
2022/08/21 11:22:27;;;;;;;10.60;4.00;;;24.50;61.10;;;;;;5079428;28;20470;-78
2022/08/21 11:25:01;;;;;;;10.10;3.90;;;24.50;60.60;;;;;;5084146;28;20930;-79
2022/08/21 11:27:35;;;;;;;6.67;3.90;;;24.50;60.10;;;;;;5077593;28;20492;-80
2022/08/21 11:30:04;;;;;;;8.87;4.40;;;24.40;59.70;;;;;;5082726;28;20959;-78
2022/08/21 11:32:49;;;;;;;9.37;3.90;;;24.40;59.60;;;;;;5079426;28;20856;-80
2022/08/21 11:35:27;;;;;;;13.23;4.40;;;24.40;59.40;;;;;;5075383;28;20474;-80
2022/08/21 11:38:12;;;;;;;6.77;3.93;;;24.30;59.40;;;;;;5078573;28;20475;-81
2022/08/21 11:41:03;;;;;;;7.83;3.60;;;24.30;59.40;;;;;;5074435;28;20980;-80
2022/08/21 11:43:38;;;;;;;12.93;4.40;;;24.40;59.20;;;;;;5058515;28;20967;-80
2022/08/21 11:46:18;;;;;;;6.60;3.60;;;24.40;59.10;;;;;;5075493;28;20498;-80
2022/08/21 11:48:58;;;;;;;8.07;4.30;;;24.40;59.00;;;;;;5068676;28;20541;-80
2022/08/21 11:51:32;;;;;;;6.27;3.30;;;24.50;58.90;;;;;;5060834;28;20997;-78
2022/08/21 11:54:06;;;;;;;9.47;3.97;;;24.50;58.90;;;;;;5081080;28;21041;-79
2022/08/21 11:56:41;;;;;;;6.67;3.50;;;24.60;58.60;;;;;;5076982;28;20904;-80
2022/08/21 11:59:14;;;;;;;9.83;3.83;;;24.70;58.30;;;;;;5075791;28;20532;-80
2022/08/21 12:01:45;;;;;;;8.63;3.37;;;24.80;58.10;;;;;;5073900;28;20920;-81
2022/08/21 12:04:22;;;;;;;7.73;4.00;;;24.80;57.90;;;;;;5071115;28;20456;-80
2022/08/21 12:06:53;;;;;;;10.27;3.90;;;24.80;57.50;;;;;;5074864;28;20482;-80
2022/08/21 12:09:36;;;;;;;7.83;3.50;;;24.90;57.30;;;;;;5080730;28;20805;-79
2022/08/21 12:12:10;;;;;;;6.17;3.57;;;24.90;57.20;;;;;;5062503;28;20463;-78
2022/08/21 12:14:42;;;;;;;7.30;3.50;;;24.90;57.00;;;;;;5081127;28;20459;-80
2022/08/21 12:17:19;;;;;;;8.23;3.50;;;25.10;56.80;;;;;;5077919;28;20508;-80
2022/08/21 12:19:58;;;;;;;7.17;3.40;;;25.20;56.30;;;;;;5084443;28;20457;-80
2022/08/21 12:22:39;;;;;;;6.87;2.93;;;25.30;55.20;;;;;;5081931;28;20459;-80
2022/08/21 12:25:16;;;;;;;6.83;3.30;;;25.30;55.20;;;;;;5079787;28;20485;-79
2022/08/21 12:27:53;;;;;;;8.20;3.20;;;25.40;54.40;;;;;;5077592;28;20461;-80
2022/08/21 12:30:33;;;;;;;8.40;3.13;;;25.50;54.90;;;;;;5062474;28;20459;-79
2022/08/21 12:33:04;;;;;;;6.77;3.80;;;25.50;54.60;;;;;;5076366;28;20466;-79
2022/08/21 12:35:38;;;;;;;6.97;2.97;;;25.50;54.30;;;;;;5078002;28;20494;-79
2022/08/21 12:38:11;;;;;;;5.97;3.27;;;25.50;53.90;;;;;;5080207;28;20839;-78
2022/08/21 12:40:42;;;;;;;6.70;3.80;;;25.50;53.80;;;;;;5065693;28;20459;-79
2022/08/21 12:43:20;;;;;;;9.60;3.90;;;25.50;53.80;;;;;;5078797;28;20469;-78
2022/08/21 12:45:52;;;;;;;8.43;3.07;;;25.50;53.60;;;;;;5065323;28;21062;-79
2022/08/21 12:48:24;;;;;;;9.57;3.00;;;25.50;53.40;;;;;;5077188;28;20649;-81
2022/08/21 12:50:56;;;;;;;5.37;3.00;;;25.50;53.20;;;;;;5061796;28;20486;-80
2022/08/21 12:53:30;;;;;;;9.27;3.50;;;25.60;53.10;;;;;;5073928;28;21239;-81
2022/08/21 12:56:03;;;;;;;6.40;2.93;;;25.60;52.90;;;;;;5075085;28;20479;-78
2022/08/21 12:58:32;;;;;;;6.60;3.20;;;25.60;52.80;;;;;;5066846;28;21160;-80
2022/08/21 13:01:07;;;;;;;6.73;3.13;;;25.70;52.40;;;;;;5077885;28;20897;-80
2022/08/21 13:03:38;;;;;;;7.30;3.53;;;25.70;52.20;;;;;;5077977;28;20452;-81
2022/08/21 13:06:09;;;;;;;7.53;2.97;;;25.70;51.90;;;;;;5076871;28;20477;-81
2022/08/21 13:08:37;;;;;;;6.20;3.33;;;25.70;51.70;;;;;;5079010;28;20473;-79